createdAt,value
2023-03-07T00:01:54.651Z,13.68
2023-03-07T00:04:56.700Z,13.66
2023-03-07T00:07:59.458Z,13.69
2023-03-07T00:11:03.369Z,13.58
2023-03-07T00:14:08.830Z,13.46
2023-03-07T00:17:10.925Z,13.54
2023-03-07T00:20:15.979Z,13.43
2023-03-07T00:23:17.936Z,13.55
2023-03-07T00:26:22.946Z,13.75
2023-03-07T00:29:25.047Z,13.77
2023-03-07T00:32:27.581Z,13.77
2023-03-07T00:35:29.661Z,13.76
2023-03-07T00:38:32.924Z,13.77
2023-03-07T00:41:35.075Z,13.72
2023-03-07T00:44:37.240Z,13.80
2023-03-07T00:47:39.322Z,13.80
2023-03-07T00:50:41.671Z,13.71
2023-03-07T00:53:44.657Z,13.77
2023-03-07T00:56:46.869Z,13.78
2023-03-07T00:59:49.305Z,13.63
2023-03-07T01:02:52.051Z,13.56
2023-03-07T01:05:55.265Z,13.60
2023-03-07T01:09:00.831Z,13.63
2023-03-07T01:12:07.404Z,13.64
2023-03-07T01:15:10.019Z,13.56
2023-03-07T01:18:13.343Z,13.46
2023-03-07T01:21:21.794Z,13.67
2023-03-07T01:24:24.544Z,13.63
2023-03-07T01:27:27.306Z,13.60
2023-03-07T01:30:29.346Z,13.58
2023-03-07T01:33:31.601Z,13.58
2023-03-07T01:36:35.027Z,13.65
2023-03-07T01:39:40.617Z,13.47
2023-03-07T01:42:45.279Z,13.37
2023-03-07T01:45:56.353Z,13.49
2023-03-07T01:49:01.367Z,13.58
2023-03-07T01:52:25.579Z,13.50
2023-03-07T01:55:34.117Z,13.47
2023-03-07T01:58:46.957Z,13.68
2023-03-07T02:01:50.314Z,13.67
2023-03-07T02:05:13.794Z,13.67
2023-03-07T02:08:17.280Z,13.70
2023-03-07T02:11:21.376Z,13.63
2023-03-07T02:14:23.457Z,13.55
2023-03-07T02:17:28.041Z,13.75
2023-03-07T02:20:36.237Z,13.77
2023-03-07T02:23:46.956Z,13.63
2023-03-07T02:26:51.910Z,13.56
2023-03-07T02:29:56.427Z,13.57
2023-03-07T02:32:58.539Z,13.48
2023-03-07T02:36:08.882Z,13.47
2023-03-07T02:39:14.761Z,13.57
2023-03-07T02:42:40.627Z,13.60
2023-03-07T02:45:47.063Z,13.74
2023-03-07T02:48:49.424Z,13.65
2023-03-07T02:51:57.744Z,13.57
2023-03-07T02:55:00.129Z,13.68
2023-03-07T02:58:07.353Z,13.61
2023-03-07T03:01:10.624Z,13.67
2023-03-07T03:04:12.761Z,13.64
2023-03-07T03:07:16.010Z,13.63
2023-03-07T03:10:18.278Z,13.64
2023-03-07T03:13:20.675Z,13.58
2023-03-07T03:16:22.966Z,13.36
2023-03-07T03:19:25.148Z,13.34
2023-03-07T03:22:27.291Z,13.55
2023-03-07T03:25:29.923Z,13.58
2023-03-07T03:28:32.055Z,13.45
2023-03-07T03:31:35.217Z,13.31
2023-03-07T03:34:39.551Z,13.45
2023-03-07T03:37:42.035Z,13.06
2023-03-07T03:40:44.106Z,13.38
2023-03-07T03:43:46.983Z,13.63
2023-03-07T03:46:49.351Z,13.50
2023-03-07T03:49:53.698Z,13.53
2023-03-07T03:52:57.142Z,13.50
2023-03-07T03:56:14.608Z,13.54
2023-03-07T03:59:17.652Z,13.49
2023-03-07T04:02:20.031Z,13.06
2023-03-07T04:05:22.716Z,12.97
2023-03-07T04:08:24.838Z,13.04
2023-03-07T04:11:27.117Z,13.15
2023-03-07T04:14:29.202Z,13.14
2023-03-07T04:17:31.712Z,13.17
2023-03-07T04:20:35.017Z,13.27
2023-03-07T04:23:37.925Z,13.19
2023-03-07T04:26:40.176Z,13.25
2023-03-07T04:29:42.306Z,13.56
2023-03-07T04:32:56.433Z,13.49
2023-03-07T04:35:58.708Z,13.28
2023-03-07T04:39:00.811Z,13.17
2023-03-07T04:42:02.900Z,13.25
2023-03-07T04:45:11.897Z,13.35
2023-03-07T04:48:14.335Z,12.98
2023-03-07T04:51:17.377Z,13.01
2023-03-07T04:54:19.623Z,13.04
2023-03-07T04:57:23.756Z,12.96
2023-03-07T05:00:26.197Z,13.21
2023-03-07T05:03:28.846Z,13.51
2023-03-07T05:06:33.576Z,13.63
2023-03-07T05:09:35.981Z,13.37
2023-03-07T05:12:38.025Z,13.74
2023-03-07T05:15:41.294Z,13.80
2023-03-07T05:18:43.591Z,13.85
2023-03-07T05:21:47.730Z,14.03
2023-03-07T05:24:50.205Z,13.98
2023-03-07T05:27:52.295Z,14.06
2023-03-07T05:30:57.442Z,14.03
2023-03-07T05:34:03.035Z,14.09
2023-03-07T05:37:05.475Z,14.06
2023-03-07T05:40:11.105Z,14.08
2023-03-07T05:43:16.701Z,14.45
2023-03-07T05:46:20.820Z,14.76
2023-03-07T05:49:25.054Z,14.89
2023-03-07T05:52:28.365Z,15.05
2023-03-07T05:55:30.683Z,15.08
2023-03-07T05:58:33.767Z,15.22
2023-03-07T06:01:36.005Z,15.09
2023-03-07T06:04:38.122Z,15.12
2023-03-07T06:07:40.363Z,14.72
2023-03-07T06:10:43.278Z,14.62
2023-03-07T06:13:47.195Z,14.44
2023-03-07T06:16:49.298Z,14.38
2023-03-07T06:19:51.544Z,14.28
2023-03-07T06:22:54.377Z,14.27
2023-03-07T06:25:56.911Z,14.33
2023-03-07T06:28:59.805Z,14.34
2023-03-07T06:32:02.190Z,14.26
2023-03-07T06:35:04.476Z,14.22
2023-03-07T06:38:07.607Z,14.28
2023-03-07T06:41:10.111Z,14.38
2023-03-07T06:44:12.474Z,14.49
2023-03-07T06:47:14.512Z,14.63
2023-03-07T06:50:23.756Z,15.05
2023-03-07T06:53:32.374Z,15.79
2023-03-07T06:56:35.964Z,16.06
2023-03-07T06:59:38.400Z,16.33
2023-03-07T07:02:40.732Z,16.65
2023-03-07T07:05:42.941Z,17.15
2023-03-07T07:08:45.176Z,17.34
2023-03-07T07:11:47.872Z,17.35
2023-03-07T07:14:50.167Z,17.41
2023-03-07T07:17:53.210Z,17.45
2023-03-07T07:20:57.532Z,17.45
2023-03-07T07:24:01.337Z,17.55
2023-03-07T07:27:03.917Z,17.44
2023-03-07T07:30:07.833Z,17.44
2023-03-07T07:33:11.325Z,17.44
2023-03-07T07:36:13.634Z,17.58
2023-03-07T07:39:17.409Z,17.53
2023-03-07T07:42:20.801Z,17.50
2023-03-07T07:45:38.048Z,17.57
2023-03-07T07:48:42.569Z,17.62
2023-03-07T07:51:45.787Z,17.65
2023-03-07T07:54:47.930Z,17.66
2023-03-07T07:57:51.293Z,17.64
2023-03-07T08:00:54.142Z,17.64
2023-03-07T08:03:56.331Z,17.56
2023-03-07T08:06:58.499Z,17.54
2023-03-07T08:10:00.593Z,17.62
2023-03-07T08:13:03.279Z,17.65
2023-03-07T08:16:22.710Z,17.67
2023-03-07T08:19:24.814Z,17.70
2023-03-07T08:22:27.345Z,17.67
2023-03-07T08:25:30.779Z,17.67
2023-03-07T08:28:33.363Z,17.65
2023-03-07T08:31:35.487Z,17.53
2023-03-07T08:34:37.614Z,17.64
2023-03-07T08:37:40.685Z,17.70
2023-03-07T08:40:42.692Z,17.58
2023-03-07T08:43:44.843Z,17.61
2023-03-07T08:46:46.762Z,17.56
2023-03-07T08:49:48.667Z,17.58
2023-03-07T08:52:51.350Z,17.51
2023-03-07T08:55:53.399Z,17.56
2023-03-07T08:58:55.410Z,17.55
2023-03-07T09:01:57.907Z,17.63
2023-03-07T09:05:00.084Z,17.59
2023-03-07T09:08:02.312Z,17.63
2023-03-07T09:11:05.654Z,17.55
2023-03-07T09:14:07.785Z,17.59
2023-03-07T09:17:10.516Z,17.59
2023-03-07T09:20:14.292Z,17.62
2023-03-07T09:23:16.262Z,17.60
2023-03-07T09:26:18.671Z,17.58
2023-03-07T09:29:20.703Z,17.73
2023-03-07T09:32:22.782Z,17.69
2023-03-07T09:35:25.386Z,17.75
2023-03-07T09:38:27.374Z,17.71
2023-03-07T09:41:32.333Z,17.70
2023-03-07T09:44:51.503Z,17.76
2023-03-07T09:48:31.370Z,18.02
2023-03-07T09:51:40.219Z,18.09
2023-03-07T09:55:01.240Z,18.11
2023-03-07T09:58:16.138Z,18.23
2023-03-07T10:01:23.198Z,18.27
2023-03-07T10:04:34.865Z,18.09
2023-03-07T10:07:37.189Z,17.94
2023-03-07T10:10:47.593Z,18.05
2023-03-07T10:14:24.925Z,18.09
2023-03-07T10:17:40.232Z,18.12
2023-03-07T10:20:42.736Z,18.24
2023-03-07T10:24:02.946Z,18.28
2023-03-07T10:27:10.453Z,18.26
2023-03-07T10:30:18.173Z,18.56
2023-03-07T10:33:21.728Z,18.74
2023-03-07T10:36:46.750Z,18.72
2023-03-07T10:39:54.346Z,18.58
2023-03-07T10:42:58.494Z,18.57
2023-03-07T10:46:24.692Z,18.50
2023-03-07T10:49:37.688Z,18.41
2023-03-07T10:53:01.387Z,18.35
2023-03-07T10:56:16.594Z,18.52
2023-03-07T10:59:25.432Z,19.02
2023-03-07T11:02:30.674Z,19.40
2023-03-07T11:05:36.224Z,18.92
2023-03-07T11:08:38.168Z,18.63
2023-03-07T11:11:40.364Z,18.38
2023-03-07T11:15:00.474Z,18.16
2023-03-07T11:18:02.800Z,18.10
2023-03-07T11:21:05.342Z,18.14
2023-03-07T11:24:30.810Z,18.12
2023-03-07T11:27:38.986Z,18.10
2023-03-07T11:30:52.227Z,18.16
2023-03-07T11:34:17.228Z,18.06
2023-03-07T11:37:52.068Z,18.20
2023-03-07T11:40:56.821Z,18.09
2023-03-07T11:44:36.181Z,18.13
2023-03-07T11:47:45.855Z,18.16
2023-03-07T11:50:54.257Z,18.27
2023-03-07T11:54:07.841Z,18.28
2023-03-07T11:57:18.729Z,18.25
2023-03-07T12:00:26.554Z,18.23
2023-03-07T12:03:54.075Z,18.04
2023-03-07T12:07:20.557Z,18.04
2023-03-07T12:10:31.380Z,18.09
2023-03-07T12:13:45.420Z,18.10
2023-03-07T12:17:19.282Z,17.95
2023-03-07T12:20:31.997Z,17.69
2023-03-07T12:23:41.968Z,17.65
2023-03-07T12:26:56.430Z,17.58
2023-03-07T12:30:05.354Z,17.48
2023-03-07T12:33:21.673Z,17.59
2023-03-07T12:36:32.060Z,17.71
2023-03-07T12:39:42.738Z,17.65
2023-03-07T12:43:09.710Z,17.53
2023-03-07T12:46:31.497Z,17.47
2023-03-07T12:49:49.663Z,17.43
2023-03-07T12:52:57.328Z,17.42
2023-03-07T12:56:18.501Z,17.39
2023-03-07T12:59:21.948Z,17.46
2023-03-07T13:02:30.285Z,17.64
2023-03-07T13:05:37.901Z,17.61
2023-03-07T13:08:40.814Z,17.60
2023-03-07T13:12:20.093Z,17.59
2023-03-07T13:15:26.037Z,17.59
2023-03-07T13:18:31.789Z,17.52
2023-03-07T13:21:34.070Z,17.47
2023-03-07T13:24:39.985Z,17.55
2023-03-07T13:27:41.964Z,17.57
2023-03-07T13:31:16.148Z,17.52
2023-03-07T13:34:48.151Z,17.59
2023-03-07T13:38:00.347Z,17.68
2023-03-07T13:41:05.928Z,17.67
2023-03-07T13:44:30.693Z,17.62
2023-03-07T13:47:43.228Z,17.64
2023-03-07T13:50:45.244Z,17.65
2023-03-07T13:53:51.053Z,17.52
2023-03-07T13:56:55.451Z,17.47
2023-03-07T13:59:57.586Z,17.40
2023-03-07T14:02:59.848Z,17.42
2023-03-07T14:06:09.901Z,17.42
2023-03-07T14:09:18.418Z,17.40
2023-03-07T14:12:44.341Z,17.67
2023-03-07T14:16:15.878Z,18.15
2023-03-07T14:19:38.983Z,18.01
2023-03-07T14:23:02.718Z,17.97
2023-03-07T14:26:35.074Z,17.85
2023-03-07T14:29:37.263Z,17.91
2023-03-07T14:32:41.044Z,17.82
2023-03-07T14:35:44.732Z,17.63
2023-03-07T14:38:48.787Z,17.54
2023-03-07T14:42:18.216Z,17.55
2023-03-07T14:45:22.512Z,17.48
2023-03-07T14:49:12.806Z,17.43
2023-03-07T14:52:29.899Z,17.43
2023-03-07T14:55:54.022Z,17.46
2023-03-07T14:59:00.275Z,17.45
2023-03-07T15:02:02.270Z,17.41
2023-03-07T15:05:04.801Z,17.37
2023-03-07T15:08:22.368Z,17.34
2023-03-07T15:11:51.974Z,17.23
2023-03-07T15:15:02.607Z,17.33
2023-03-07T15:18:14.227Z,17.27
2023-03-07T15:21:20.644Z,17.29
2023-03-07T15:24:33.806Z,17.28
2023-03-07T15:27:35.894Z,17.26
2023-03-07T15:31:25.491Z,17.14
2023-03-07T15:34:30.684Z,17.19
2023-03-07T15:37:33.489Z,17.18
2023-03-07T15:40:40.089Z,17.17
2023-03-07T15:43:42.415Z,17.17
2023-03-07T15:47:14.629Z,17.19
2023-03-07T15:50:24.071Z,17.15
2023-03-07T15:53:36.997Z,17.10
2023-03-07T15:56:41.203Z,17.02
2023-03-07T15:59:58.472Z,16.98
2023-03-07T16:03:29.396Z,17.03
2023-03-07T16:06:44.643Z,17.05
2023-03-07T16:09:46.646Z,17.41
2023-03-07T16:12:49.658Z,17.79
2023-03-07T16:16:12.559Z,17.98
2023-03-07T16:19:14.695Z,18.00
2023-03-07T16:22:19.092Z,18.03
2023-03-07T16:25:24.302Z,17.95
2023-03-07T16:28:28.322Z,17.85
2023-03-07T16:31:30.361Z,17.68
2023-03-07T16:34:33.814Z,17.70
2023-03-07T16:37:38.862Z,17.71
2023-03-07T16:40:48.470Z,17.69
2023-03-07T16:43:55.016Z,17.56
2023-03-07T16:47:13.978Z,17.43
2023-03-07T16:50:18.668Z,17.32
2023-03-07T16:53:20.716Z,17.36
2023-03-07T16:56:28.744Z,17.35
2023-03-07T16:59:39.951Z,17.34
2023-03-07T17:02:42.074Z,17.27
2023-03-07T17:05:45.106Z,17.29
2023-03-07T17:08:47.177Z,17.24
2023-03-07T17:11:51.717Z,17.37
2023-03-07T17:14:57.506Z,17.62
2023-03-07T17:18:01.285Z,18.80
2023-03-07T17:21:03.784Z,19.58
2023-03-07T17:24:06.182Z,19.61
2023-03-07T17:27:08.971Z,19.59
2023-03-07T17:30:17.881Z,20.77
2023-03-07T17:33:19.826Z,21.08
2023-03-07T17:36:22.670Z,20.05
2023-03-07T17:39:25.131Z,20.11
2023-03-07T17:42:29.527Z,21.32
2023-03-07T17:45:31.605Z,21.18
2023-03-07T17:48:35.756Z,20.30
2023-03-07T17:51:38.064Z,21.19
2023-03-07T17:54:41.203Z,21.72
2023-03-07T17:57:48.467Z,21.22
2023-03-07T18:00:50.493Z,20.91
2023-03-07T18:03:52.509Z,21.68
2023-03-07T18:06:54.536Z,21.93
2023-03-07T18:10:07.449Z,20.66
2023-03-07T18:13:15.013Z,21.08
2023-03-07T18:16:19.571Z,21.83
2023-03-07T18:19:27.466Z,21.51
2023-03-07T18:22:29.618Z,20.68
2023-03-07T18:25:32.590Z,21.58
2023-03-07T18:28:36.599Z,22.05
2023-03-07T18:31:41.908Z,21.18
2023-03-07T18:34:44.981Z,21.16
2023-03-07T18:37:47.573Z,21.65
2023-03-07T18:40:51.801Z,21.20
2023-03-07T18:44:05.685Z,20.31
2023-03-07T18:47:08.634Z,20.16
2023-03-07T18:50:12.509Z,20.06
2023-03-07T18:53:17.209Z,20.02
2023-03-07T18:56:19.568Z,20.09
2023-03-07T18:59:21.704Z,20.04
2023-03-07T19:02:23.776Z,19.87
2023-03-07T19:05:25.878Z,19.68
2023-03-07T19:08:28.564Z,19.63
2023-03-07T19:11:31.240Z,19.48
2023-03-07T19:14:33.712Z,19.30
2023-03-07T19:17:39.988Z,19.26
2023-03-07T19:20:42.254Z,19.02
2023-03-07T19:23:44.432Z,18.86
2023-03-07T19:26:46.530Z,18.59
2023-03-07T19:29:48.590Z,18.43
2023-03-07T19:32:50.674Z,18.26
2023-03-07T19:36:09.471Z,18.04
2023-03-07T19:39:20.754Z,17.89
2023-03-07T19:42:23.738Z,17.76
2023-03-07T19:45:27.118Z,17.64
2023-03-07T19:48:29.619Z,17.56
2023-03-07T19:51:31.608Z,17.51
2023-03-07T19:54:33.658Z,17.40
2023-03-07T19:57:36.534Z,17.38
2023-03-07T20:00:43.496Z,17.24
2023-03-07T20:03:46.090Z,17.26
2023-03-07T20:06:48.218Z,17.20
2023-03-07T20:09:53.181Z,17.11
2023-03-07T20:12:55.266Z,17.14
2023-03-07T20:15:57.380Z,17.16
2023-03-07T20:19:01.981Z,16.99
2023-03-07T20:22:05.079Z,16.93
2023-03-07T20:25:07.536Z,16.89
2023-03-07T20:28:09.890Z,16.78
2023-03-07T20:31:13.029Z,16.82
2023-03-07T20:34:15.108Z,16.78
2023-03-07T20:37:17.166Z,16.75
2023-03-07T20:40:19.292Z,16.68
2023-03-07T20:43:21.291Z,16.68
2023-03-07T20:46:23.742Z,16.72
2023-03-07T20:49:26.027Z,16.71
2023-03-07T20:52:28.347Z,16.73
2023-03-07T20:55:31.100Z,16.69
2023-03-07T20:58:33.697Z,16.71
2023-03-07T21:01:36.342Z,16.59
2023-03-07T21:04:38.343Z,16.71
2023-03-07T21:07:40.343Z,16.58
2023-03-07T21:10:42.447Z,16.55
2023-03-07T21:13:46.622Z,16.40
2023-03-07T21:16:49.527Z,16.51
2023-03-07T21:19:51.507Z,16.44
2023-03-07T21:22:57.591Z,16.46
2023-03-07T21:26:12.337Z,16.45
2023-03-07T21:29:14.650Z,16.37
2023-03-07T21:32:17.059Z,16.38
2023-03-07T21:35:19.317Z,16.36
2023-03-07T21:38:23.333Z,16.33
2023-03-07T21:41:25.432Z,16.19
2023-03-07T21:44:27.429Z,16.19
2023-03-07T21:47:29.583Z,16.16
2023-03-07T21:50:32.492Z,16.15
2023-03-07T21:53:35.697Z,16.08
2023-03-07T21:56:37.801Z,16.12
2023-03-07T21:59:40.447Z,16.03
2023-03-07T22:02:43.021Z,15.95
2023-03-07T22:05:45.292Z,16.02
2023-03-07T22:08:48.691Z,16.10
2023-03-07T22:11:50.713Z,15.94
2023-03-07T22:14:52.904Z,15.91
2023-03-07T22:17:55.889Z,15.82
2023-03-07T22:20:57.953Z,15.79
2023-03-07T22:24:01.294Z,15.50
2023-03-07T22:27:03.521Z,15.32
2023-03-07T22:30:07.466Z,15.51
2023-03-07T22:33:09.483Z,15.41
2023-03-07T22:36:13.760Z,16.48
2023-03-07T22:39:15.684Z,18.04
2023-03-07T22:42:17.879Z,19.39
2023-03-07T22:45:19.893Z,19.58
2023-03-07T22:48:22.225Z,20.71
2023-03-07T22:51:25.559Z,21.25
2023-03-07T22:54:28.051Z,21.50
2023-03-07T22:57:31.311Z,21.57
2023-03-07T23:00:33.230Z,21.15
2023-03-07T23:03:35.317Z,20.99
2023-03-07T23:06:38.577Z,20.22
2023-03-07T23:09:40.735Z,19.89
2023-03-07T23:12:43.104Z,19.61
2023-03-07T23:15:45.296Z,18.73
2023-03-07T23:18:51.800Z,18.57
2023-03-07T23:21:53.822Z,18.39
2023-03-07T23:24:55.911Z,18.18
2023-03-07T23:27:57.973Z,17.95
2023-03-07T23:31:00.323Z,17.84
2023-03-07T23:34:05.602Z,17.58
2023-03-07T23:37:07.559Z,17.50
2023-03-07T23:40:12.231Z,17.45
2023-03-07T23:43:14.772Z,17.32
2023-03-07T23:46:16.893Z,17.26
2023-03-07T23:49:18.953Z,17.10
2023-03-07T23:52:21.178Z,17.02
2023-03-07T23:55:23.282Z,16.81
2023-03-07T23:58:25.374Z,16.77
